createdAt,value
2019-02-15T00:00:45.897Z,73.57
2019-02-15T00:02:56.815Z,74.27
2019-02-15T00:05:07.596Z,74.18
2019-02-15T00:07:18.426Z,74.56
2019-02-15T00:09:29.217Z,74.60
2019-02-15T00:11:40.045Z,74.54
2019-02-15T00:13:50.931Z,74.41
2019-02-15T00:16:01.758Z,74.37
2019-02-15T00:18:52.309Z,74.23
2019-02-15T00:21:22.994Z,74.36
2019-02-15T00:23:33.799Z,74.24
2019-02-15T00:25:44.588Z,74.20
2019-02-15T00:30:12.739Z,74.66
2019-02-15T00:32:23.569Z,74.87
2019-02-15T00:34:34.366Z,74.99
2019-02-15T00:36:45.188Z,74.97
2019-02-15T00:38:55.981Z,75.02
2019-02-15T00:41:07.226Z,75.28
2019-02-15T00:43:22.364Z,75.14
2019-02-15T00:48:22.985Z,75.43
2019-02-15T00:50:53.667Z,75.35
2019-02-15T00:53:24.613Z,75.49
2019-02-15T00:55:55.503Z,75.48
2019-02-15T01:00:44.760Z,75.26
2019-02-15T01:03:15.549Z,75.20
2019-02-15T01:05:46.231Z,75.02
2019-02-15T01:10:36.082Z,74.88
2019-02-15T01:15:09.237Z,74.67
2019-02-15T01:17:20.036Z,74.95
2019-02-15T01:19:30.848Z,75.33
2019-02-15T01:21:41.659Z,75.33
2019-02-15T01:23:52.458Z,75.40
2019-02-15T01:28:55.515Z,76.32
2019-02-15T01:36:16.968Z,76.08
2019-02-15T01:38:47.658Z,76.10
2019-02-15T01:41:18.321Z,75.97
2019-02-15T01:43:49.011Z,76.24
2019-02-15T01:48:32.320Z,76.95
2019-02-15T01:50:43.114Z,76.93
2019-02-15T01:52:53.912Z,76.93
2019-02-15T01:55:46.369Z,77.10
2019-02-15T01:57:57.157Z,77.28
2019-02-15T02:00:49.696Z,77.58
2019-02-15T02:03:00.454Z,77.69
2019-02-15T02:05:11.365Z,77.77
2019-02-15T02:07:22.152Z,77.57
2019-02-15T02:09:32.960Z,77.49
2019-02-15T02:11:43.785Z,77.64
2019-02-15T02:13:54.580Z,77.80
2019-02-15T02:16:05.406Z,77.69
2019-02-15T02:18:16.195Z,77.55
2019-02-15T02:20:26.988Z,77.58
2019-02-15T02:22:37.794Z,77.53
2019-02-15T02:24:48.598Z,77.48
2019-02-15T02:26:59.417Z,77.54
2019-02-15T02:29:10.219Z,77.56
2019-02-15T02:31:21.049Z,77.81
2019-02-15T02:33:31.876Z,77.74
2019-02-15T02:35:42.795Z,77.50
2019-02-15T02:37:53.598Z,77.53
2019-02-15T02:40:46.067Z,77.58
2019-02-15T02:42:56.854Z,77.66
2019-02-15T02:45:07.889Z,77.91
2019-02-15T02:47:18.719Z,77.80
2019-02-15T02:49:29.620Z,77.79
2019-02-15T02:51:40.434Z,77.83
2019-02-15T02:53:51.242Z,78.02
2019-02-15T02:56:02.039Z,77.97
2019-02-15T02:58:12.847Z,78.12
2019-02-15T03:00:32.970Z,77.92
2019-02-15T03:02:36.582Z,77.90
2019-02-15T03:04:47.370Z,77.87
2019-02-15T03:06:58.186Z,77.95
2019-02-15T03:09:09.102Z,77.84
2019-02-15T03:11:19.918Z,77.80
2019-02-15T03:13:30.739Z,78.03
2019-02-15T03:15:41.529Z,77.98
2019-02-15T03:17:52.353Z,78.00
2019-02-15T03:20:44.804Z,78.06
2019-02-15T03:22:55.723Z,78.15
2019-02-15T03:25:06.621Z,78.23
2019-02-15T03:27:17.414Z,78.38
2019-02-15T03:29:28.221Z,78.47
2019-02-15T03:31:39.019Z,78.60
2019-02-15T03:33:49.845Z,78.33
2019-02-15T03:41:31.897Z,77.85
2019-02-15T03:43:42.710Z,77.70
2019-02-15T03:45:53.564Z,77.56
2019-02-15T03:48:04.426Z,77.64
2019-02-15T03:50:15.248Z,78.09
2019-02-15T03:52:26.046Z,78.32
2019-02-15T03:54:37.068Z,78.58
2019-02-15T03:56:47.854Z,78.76
2019-02-15T03:58:58.757Z,78.89
2019-02-15T04:01:09.661Z,79.02
2019-02-15T04:03:20.470Z,78.93
2019-02-15T04:05:31.318Z,78.79
2019-02-15T04:07:42.103Z,78.65
2019-02-15T04:09:52.977Z,78.56
2019-02-15T04:12:03.795Z,78.50
2019-02-15T04:14:14.604Z,78.46
2019-02-15T04:16:25.408Z,78.39
2019-02-15T04:18:36.199Z,78.18
2019-02-15T04:20:47.018Z,78.05
2019-02-15T04:23:00.752Z,77.76
2019-02-15T04:25:11.617Z,77.77
2019-02-15T04:27:22.407Z,77.66
2019-02-15T04:29:33.198Z,77.63
2019-02-15T04:31:44.022Z,77.77
2019-02-15T04:33:54.821Z,77.79
2019-02-15T04:36:05.641Z,77.80
2019-02-15T04:38:16.446Z,77.70
2019-02-15T04:40:27.247Z,77.68
2019-02-15T04:42:38.051Z,77.81
2019-02-15T04:44:48.841Z,77.73
2019-02-15T04:46:59.667Z,77.60
2019-02-15T04:49:10.481Z,77.61
2019-02-15T04:51:21.332Z,77.51
2019-02-15T04:53:32.122Z,77.44
2019-02-15T04:55:42.978Z,77.29
2019-02-15T04:57:53.798Z,77.05
2019-02-15T05:00:46.295Z,76.82
2019-02-15T05:02:57.247Z,76.72
2019-02-15T05:05:08.159Z,76.81
2019-02-15T05:07:18.967Z,76.88
2019-02-15T05:09:29.772Z,76.87
2019-02-15T05:11:40.583Z,76.88
2019-02-15T05:13:51.381Z,76.85
2019-02-15T05:16:02.199Z,76.85
2019-02-15T05:18:13.018Z,76.82
2019-02-15T05:20:23.823Z,76.77
2019-02-15T05:22:34.676Z,76.74
2019-02-15T05:24:45.460Z,76.90
2019-02-15T05:26:56.329Z,77.02
2019-02-15T05:29:07.125Z,77.01
2019-02-15T05:31:17.910Z,77.20
2019-02-15T05:33:28.722Z,77.50
2019-02-15T05:35:39.509Z,77.64
2019-02-15T05:37:50.317Z,77.71
2019-02-15T05:40:01.152Z,77.73
2019-02-15T05:42:11.927Z,77.64
2019-02-15T05:44:22.777Z,77.48
2019-02-15T05:46:33.544Z,77.34
2019-02-15T05:48:44.359Z,77.08
2019-02-15T05:50:55.154Z,76.83
2019-02-15T05:53:05.976Z,76.78
2019-02-15T05:55:16.788Z,76.68
2019-02-15T05:57:27.647Z,76.46
2019-02-15T05:59:38.479Z,76.43
2019-02-15T06:01:49.358Z,76.37
2019-02-15T06:04:00.106Z,76.31
2019-02-15T06:06:10.911Z,75.88
2019-02-15T06:08:21.729Z,76.09
2019-02-15T06:10:32.546Z,76.61
2019-02-15T06:12:43.361Z,77.00
2019-02-15T06:14:54.221Z,76.95
2019-02-15T06:17:05.018Z,76.98
2019-02-15T06:19:15.834Z,77.12
2019-02-15T06:21:26.630Z,77.08
2019-02-15T06:23:37.411Z,77.03
2019-02-15T06:25:48.246Z,77.06
2019-02-15T06:27:59.038Z,77.08
2019-02-15T06:30:09.953Z,77.05
2019-02-15T06:32:20.753Z,76.98
2019-02-15T06:34:31.550Z,76.87
2019-02-15T06:36:42.360Z,76.79
2019-02-15T06:38:53.181Z,76.75
2019-02-15T06:41:03.995Z,76.65
2019-02-15T06:43:14.792Z,76.65
2019-02-15T06:45:25.743Z,76.57
2019-02-15T06:47:36.525Z,76.43
2019-02-15T06:49:47.326Z,76.35
2019-02-15T06:51:58.178Z,76.21
2019-02-15T06:54:08.933Z,76.13
2019-02-15T06:56:19.769Z,75.98
2019-02-15T06:58:31.873Z,76.01
2019-02-15T07:01:03.154Z,75.96
2019-02-15T07:03:33.829Z,75.98
2019-02-15T07:05:44.641Z,75.92
2019-02-15T07:07:55.470Z,76.05
2019-02-15T07:10:06.267Z,76.05
2019-02-15T07:12:17.106Z,75.98
2019-02-15T07:14:27.897Z,75.91
2019-02-15T07:16:38.796Z,75.83
2019-02-15T07:18:49.623Z,75.89
2019-02-15T07:21:00.448Z,75.85
2019-02-15T07:23:11.265Z,75.82
2019-02-15T07:25:22.049Z,75.74
2019-02-15T07:27:32.885Z,75.79
2019-02-15T07:29:43.685Z,75.78
2019-02-15T07:31:54.508Z,75.71
2019-02-15T07:34:05.297Z,75.79
2019-02-15T07:36:16.097Z,75.79
2019-02-15T07:38:26.913Z,75.79
2019-02-15T07:40:37.699Z,75.72
2019-02-15T07:42:48.546Z,75.70
2019-02-15T07:44:59.409Z,75.62
2019-02-15T07:47:10.228Z,75.53
2019-02-15T07:49:26.895Z,75.41
2019-02-15T07:51:33.756Z,75.30
2019-02-15T07:53:44.581Z,75.25
2019-02-15T07:55:55.377Z,73.97
2019-02-15T07:58:06.211Z,71.70
2019-02-15T08:00:17.012Z,68.61
2019-02-15T08:02:27.924Z,67.27
2019-02-15T08:04:38.751Z,65.04
2019-02-15T08:06:49.524Z,63.41
2019-02-15T08:09:00.347Z,61.42
2019-02-15T08:11:11.184Z,61.38
2019-02-15T08:13:22.000Z,60.83
2019-02-15T08:15:36.236Z,60.29
2019-02-15T08:17:45.470Z,59.31
2019-02-15T08:19:56.335Z,58.42
2019-02-15T08:22:07.132Z,57.56
2019-02-15T08:24:17.950Z,57.07
2019-02-15T08:26:28.741Z,56.06
2019-02-15T08:28:39.574Z,55.73
2019-02-15T08:30:50.364Z,54.86
2019-02-15T08:33:01.288Z,54.76
2019-02-15T08:35:12.244Z,54.57
2019-02-15T08:37:23.050Z,54.24
2019-02-15T08:39:33.984Z,53.33
2019-02-15T08:42:00.657Z,52.35
2019-02-15T08:46:14.339Z,52.54
2019-02-15T08:48:25.144Z,52.01
2019-02-15T08:50:35.959Z,51.34
2019-02-15T08:52:46.775Z,50.67
2019-02-15T08:54:57.749Z,50.68
2019-02-15T08:57:28.410Z,50.30
2019-02-15T08:59:39.242Z,50.30
2019-02-15T09:02:09.945Z,48.77
2019-02-15T09:04:20.757Z,47.76
2019-02-15T09:06:31.573Z,47.25
2019-02-15T09:08:42.376Z,46.97
2019-02-15T09:10:53.291Z,46.76
2019-02-15T09:13:04.145Z,46.94
2019-02-15T09:15:56.642Z,46.79
2019-02-15T09:18:07.466Z,45.59
2019-02-15T09:20:18.293Z,45.09
2019-02-15T09:22:29.117Z,44.13
2019-02-15T09:24:39.938Z,44.95
2019-02-15T09:26:50.732Z,44.59
2019-02-15T09:31:33.986Z,43.58
2019-02-15T09:34:04.640Z,44.03
2019-02-15T09:36:15.562Z,43.44
2019-02-15T09:38:26.358Z,43.40
2019-02-15T09:40:37.169Z,43.43
2019-02-15T09:42:48.157Z,42.83
2019-02-15T09:44:58.906Z,43.08
2019-02-15T09:47:09.723Z,43.37
2019-02-15T09:49:22.227Z,42.52
2019-02-15T09:51:33.355Z,42.37
2019-02-15T09:53:44.166Z,42.35
2019-02-15T09:55:54.955Z,41.92
2019-02-15T09:58:05.790Z,41.65
2019-02-15T10:00:16.589Z,42.01
2019-02-15T10:02:27.439Z,41.63
2019-02-15T10:04:38.261Z,41.40
2019-02-15T10:06:49.083Z,41.31
2019-02-15T10:08:59.933Z,40.81
2019-02-15T10:11:10.780Z,40.71
2019-02-15T10:13:21.622Z,40.93
2019-02-15T10:15:32.434Z,40.79
2019-02-15T10:17:43.255Z,40.79
2019-02-15T10:19:54.055Z,41.04
2019-02-15T10:22:04.867Z,40.97
2019-02-15T10:24:15.733Z,40.36
2019-02-15T10:26:26.541Z,40.18
2019-02-15T10:28:37.458Z,39.88
2019-02-15T10:30:48.259Z,38.87
2019-02-15T10:32:59.083Z,39.36
2019-02-15T10:35:09.946Z,36.80
2019-02-15T10:37:20.739Z,36.68
2019-02-15T10:39:31.666Z,33.18
2019-02-15T10:41:42.590Z,32.27
2019-02-15T10:43:53.408Z,33.56
2019-02-15T10:46:04.212Z,31.89
2019-02-15T10:48:14.998Z,31.48
2019-02-15T10:50:32.582Z,31.22
2019-02-15T10:52:43.444Z,31.82
2019-02-15T10:54:54.253Z,31.51
2019-02-15T10:57:05.175Z,31.68
2019-02-15T10:59:16.001Z,31.16
2019-02-15T11:01:26.812Z,30.83
2019-02-15T11:03:37.615Z,30.64
2019-02-15T11:05:48.503Z,30.52
2019-02-15T11:07:59.317Z,30.91
2019-02-15T11:10:10.212Z,30.96
2019-02-15T11:12:21.034Z,31.06
2019-02-15T11:14:31.854Z,31.51
2019-02-15T11:16:47.269Z,32.16
2019-02-15T11:18:55.408Z,31.12
2019-02-15T11:21:06.244Z,30.80
2019-02-15T11:23:17.042Z,30.43
2019-02-15T11:25:27.867Z,30.48
2019-02-15T11:27:38.679Z,30.53
2019-02-15T11:29:49.488Z,30.45
2019-02-15T11:32:00.315Z,30.83
2019-02-15T11:34:11.122Z,30.33
2019-02-15T11:36:21.953Z,31.22
2019-02-15T11:38:32.800Z,30.65
2019-02-15T11:40:43.623Z,30.80
2019-02-15T11:42:54.515Z,30.94
2019-02-15T11:45:46.978Z,31.12
2019-02-15T11:47:57.784Z,30.70
2019-02-15T11:50:50.246Z,31.10
2019-02-15T11:53:01.079Z,30.39
2019-02-15T11:55:12.048Z,30.08
2019-02-15T11:57:22.832Z,31.61
2019-02-15T11:59:33.630Z,31.14
2019-02-15T12:01:44.460Z,30.29
2019-02-15T12:03:55.319Z,29.86
2019-02-15T12:06:06.134Z,30.03
2019-02-15T12:08:16.979Z,29.77
2019-02-15T12:10:27.879Z,29.61
2019-02-15T12:12:38.721Z,29.86
2019-02-15T12:14:49.545Z,29.45
2019-02-15T12:17:05.622Z,29.92
2019-02-15T12:19:13.136Z,30.20
2019-02-15T12:21:23.962Z,29.56
2019-02-15T12:23:34.786Z,29.55
2019-02-15T12:25:45.581Z,30.07
2019-02-15T12:27:56.402Z,30.03
2019-02-15T12:30:29.012Z,29.05
2019-02-15T12:32:39.819Z,28.66
2019-02-15T12:34:50.629Z,28.92
2019-02-15T12:37:01.479Z,29.08
2019-02-15T12:39:14.312Z,28.26
2019-02-15T12:41:24.997Z,29.13
2019-02-15T12:43:35.814Z,29.93
2019-02-15T12:45:46.705Z,28.33
2019-02-15T12:47:57.566Z,28.66
2019-02-15T12:50:50.029Z,28.34
2019-02-15T12:53:00.960Z,28.16
2019-02-15T12:55:11.776Z,28.24
2019-02-15T12:57:22.588Z,27.87
2019-02-15T12:59:33.472Z,27.92
2019-02-15T13:01:44.240Z,28.04
2019-02-15T13:03:55.049Z,28.17
2019-02-15T13:06:05.869Z,29.18
2019-02-15T13:08:16.779Z,28.38
2019-02-15T13:12:50.058Z,28.20
2019-02-15T13:15:00.972Z,27.46
2019-02-15T13:17:11.809Z,28.46
2019-02-15T13:19:22.623Z,28.03
2019-02-15T13:21:33.432Z,27.30
2019-02-15T13:23:44.274Z,27.54
2019-02-15T13:25:55.174Z,28.23
2019-02-15T13:28:05.937Z,27.33
2019-02-15T13:30:16.761Z,28.13
2019-02-15T13:32:27.583Z,27.85
2019-02-15T13:34:38.420Z,28.13
2019-02-15T13:36:49.240Z,28.51
2019-02-15T13:39:00.030Z,26.49
2019-02-15T13:41:10.850Z,27.14
2019-02-15T13:43:21.664Z,28.17
2019-02-15T13:45:32.539Z,27.78
2019-02-15T13:47:43.350Z,28.19
2019-02-15T13:49:54.152Z,28.29
2019-02-15T13:52:04.965Z,27.87
2019-02-15T13:54:15.777Z,26.72
2019-02-15T13:56:26.624Z,27.51
2019-02-15T13:58:37.445Z,27.53
2019-02-15T14:00:48.296Z,27.36
2019-02-15T14:02:59.121Z,27.72
2019-02-15T14:05:51.574Z,27.54
2019-02-15T14:08:02.414Z,27.25
2019-02-15T14:10:54.904Z,27.64
2019-02-15T14:13:05.757Z,27.53
2019-02-15T14:15:16.646Z,27.02
2019-02-15T14:17:27.473Z,27.33
2019-02-15T14:19:38.269Z,27.78
2019-02-15T14:21:49.109Z,26.91
2019-02-15T14:23:59.922Z,27.06
2019-02-15T14:26:10.743Z,26.83
2019-02-15T14:28:21.616Z,26.67
2019-02-15T14:30:32.415Z,27.50
2019-02-15T14:32:43.274Z,27.91
2019-02-15T14:34:54.089Z,27.25
2019-02-15T14:37:04.922Z,27.84
2019-02-15T14:39:15.764Z,27.64
2019-02-15T14:41:26.681Z,27.25
2019-02-15T14:43:37.485Z,28.16
2019-02-15T14:45:48.489Z,28.04
2019-02-15T14:47:59.312Z,27.93
2019-02-15T14:50:10.211Z,27.86
2019-02-15T14:52:20.998Z,28.47
2019-02-15T14:54:31.832Z,27.87
2019-02-15T14:56:42.646Z,28.00
2019-02-15T14:58:53.463Z,28.43
2019-02-15T15:01:04.278Z,28.12
2019-02-15T15:03:15.124Z,27.76
2019-02-15T15:05:26.039Z,27.73
2019-02-15T15:07:36.968Z,27.46
2019-02-15T15:09:47.810Z,27.65
2019-02-15T15:11:58.644Z,27.81
2019-02-15T15:14:09.471Z,27.74
2019-02-15T15:16:20.298Z,27.76
2019-02-15T15:18:31.149Z,27.44
2019-02-15T15:20:41.952Z,27.77
2019-02-15T15:22:52.765Z,28.23
2019-02-15T15:25:45.238Z,27.74
2019-02-15T15:27:56.084Z,28.24
2019-02-15T15:30:48.565Z,28.13
2019-02-15T15:32:59.398Z,27.96
2019-02-15T15:35:51.915Z,28.23
2019-02-15T15:40:35.072Z,28.69
2019-02-15T15:42:45.893Z,28.04
2019-02-15T15:44:56.715Z,29.76
2019-02-15T15:47:07.793Z,27.98
2019-02-15T15:49:18.627Z,28.54
2019-02-15T15:51:29.469Z,28.41
2019-02-15T15:53:40.265Z,28.33
2019-02-15T15:55:51.106Z,28.59
2019-02-15T15:58:01.920Z,28.56
2019-02-15T16:00:54.383Z,28.96
2019-02-15T16:03:05.207Z,29.15
2019-02-15T16:05:16.039Z,29.09
2019-02-15T16:07:26.867Z,29.16
2019-02-15T16:09:37.786Z,29.29
2019-02-15T16:11:48.626Z,29.70
2019-02-15T16:13:59.503Z,29.58
2019-02-15T16:16:10.311Z,29.87
2019-02-15T16:18:21.137Z,29.98
2019-02-15T16:20:31.981Z,29.94
2019-02-15T16:22:42.785Z,30.20
2019-02-15T16:24:53.580Z,30.33
2019-02-15T16:27:04.450Z,30.32
2019-02-15T16:29:15.279Z,30.58
2019-02-15T16:31:26.111Z,30.90
2019-02-15T16:33:36.925Z,31.30
2019-02-15T16:35:48.041Z,31.61
2019-02-15T16:38:00.595Z,32.12
2019-02-15T16:40:31.258Z,32.19
2019-02-15T16:42:42.077Z,32.85
2019-02-15T16:44:52.877Z,33.23
2019-02-15T16:47:03.697Z,33.07
2019-02-15T16:49:14.518Z,33.59
2019-02-15T16:51:25.360Z,33.76
2019-02-15T16:53:36.152Z,34.44
2019-02-15T16:55:46.945Z,35.52
2019-02-15T16:57:57.775Z,35.59
2019-02-15T17:00:50.254Z,35.70
2019-02-15T17:03:01.187Z,36.36
2019-02-15T17:07:44.486Z,38.55
2019-02-15T17:09:55.296Z,38.93
2019-02-15T17:12:06.133Z,39.71
2019-02-15T17:14:16.976Z,40.30
2019-02-15T17:16:27.831Z,41.35
2019-02-15T17:18:38.692Z,42.05
2019-02-15T17:20:49.526Z,43.12
2019-02-15T17:23:00.377Z,43.40
2019-02-15T17:25:11.270Z,43.70
2019-02-15T17:27:22.078Z,43.98
2019-02-15T17:29:32.902Z,44.29
2019-02-15T17:31:43.723Z,44.38
2019-02-15T17:33:54.533Z,44.72
2019-02-15T17:36:05.491Z,44.74
2019-02-15T17:38:16.312Z,44.55
2019-02-15T17:40:27.097Z,44.84
2019-02-15T17:42:37.914Z,45.09
2019-02-15T17:44:48.774Z,45.07
2019-02-15T17:46:59.645Z,45.08
2019-02-15T17:49:10.516Z,45.30
2019-02-15T17:51:21.309Z,46.03
2019-02-15T17:53:32.147Z,47.13
2019-02-15T17:55:43.076Z,46.71
2019-02-15T17:57:53.871Z,46.85
2019-02-15T18:00:26.495Z,47.21
2019-02-15T18:02:37.294Z,47.96
2019-02-15T18:04:48.160Z,48.13
2019-02-15T18:06:59.175Z,48.68
2019-02-15T18:09:09.985Z,48.77
2019-02-15T18:11:20.812Z,49.88
2019-02-15T18:13:31.655Z,50.34
2019-02-15T18:15:42.471Z,50.32
2019-02-15T18:17:53.303Z,50.34
2019-02-15T18:20:45.768Z,50.37
2019-02-15T18:22:56.680Z,50.44
2019-02-15T18:25:07.618Z,51.23
2019-02-15T18:27:18.525Z,51.57
2019-02-15T18:29:29.361Z,51.95
2019-02-15T18:31:40.201Z,52.98
2019-02-15T18:33:51.009Z,53.57
2019-02-15T18:36:01.910Z,53.66
2019-02-15T18:38:12.721Z,54.00
2019-02-15T18:40:23.574Z,54.24
2019-02-15T18:42:34.361Z,54.34
2019-02-15T18:44:45.282Z,54.45
2019-02-15T18:46:56.147Z,55.02
2019-02-15T18:49:06.970Z,55.17
2019-02-15T18:51:17.812Z,55.68
2019-02-15T18:53:28.614Z,55.57
2019-02-15T18:55:39.422Z,56.57
2019-02-15T18:57:50.274Z,56.87
2019-02-15T19:00:01.205Z,57.04
2019-02-15T19:02:12.028Z,57.11
2019-02-15T19:04:22.856Z,57.38
2019-02-15T19:06:33.689Z,57.23
2019-02-15T19:09:04.481Z,57.45
2019-02-15T19:11:15.410Z,57.45
2019-02-15T19:13:26.245Z,57.60
2019-02-15T19:15:37.074Z,57.95
2019-02-15T19:17:47.907Z,58.03
2019-02-15T19:19:58.747Z,57.94
2019-02-15T19:22:09.691Z,58.24
2019-02-15T19:24:40.390Z,58.66
2019-02-15T19:26:51.215Z,58.66
2019-02-15T19:29:02.071Z,59.20
2019-02-15T19:31:12.981Z,59.04
2019-02-15T19:33:23.839Z,59.29
2019-02-15T19:35:34.664Z,59.58
2019-02-15T19:37:45.497Z,59.66
2019-02-15T19:39:56.438Z,59.83
2019-02-15T19:42:48.873Z,59.67
2019-02-15T19:44:59.725Z,59.68
2019-02-15T19:47:10.530Z,60.06
2019-02-15T19:49:21.353Z,60.70
2019-02-15T19:51:52.238Z,60.77
2019-02-15T19:54:03.170Z,60.77
2019-02-15T19:56:13.987Z,61.05
2019-02-15T19:58:24.788Z,61.25
2019-02-15T20:00:35.878Z,61.36
2019-02-15T20:02:46.731Z,61.62
2019-02-15T20:04:57.571Z,61.80
2019-02-15T20:07:08.423Z,62.16
2019-02-15T20:09:19.348Z,62.59
2019-02-15T20:11:30.188Z,62.52
2019-02-15T20:13:54.788Z,63.04
2019-02-15T20:16:05.778Z,63.04
2019-02-15T20:18:16.592Z,62.93
2019-02-15T20:20:27.405Z,63.13
2019-02-15T20:22:38.226Z,64.13
2019-02-15T20:24:49.041Z,64.16
2019-02-15T20:26:59.897Z,64.25
2019-02-15T20:29:10.727Z,64.48
2019-02-15T20:31:21.581Z,64.38
2019-02-15T20:33:32.478Z,64.35
2019-02-15T20:35:43.356Z,64.58
2019-02-15T20:37:54.192Z,64.92
2019-02-15T20:40:28.804Z,65.17
2019-02-15T20:42:39.523Z,65.23
2019-02-15T20:44:50.419Z,65.22
2019-02-15T20:47:01.272Z,65.77
2019-02-15T20:49:12.059Z,65.78
2019-02-15T20:51:22.891Z,65.88
2019-02-15T20:53:33.742Z,65.92
2019-02-15T20:55:44.564Z,65.92
2019-02-15T20:57:55.396Z,65.62
2019-02-15T21:00:47.893Z,65.59
2019-02-15T21:02:58.742Z,65.50
2019-02-15T21:05:09.562Z,65.41
2019-02-15T21:07:20.479Z,65.74
2019-02-15T21:09:31.319Z,65.53
2019-02-15T21:11:42.154Z,65.45
2019-02-15T21:13:53.071Z,65.74
2019-02-15T21:16:03.900Z,65.70
2019-02-15T21:18:14.734Z,65.56
2019-02-15T21:20:25.561Z,65.61
2019-02-15T21:22:36.340Z,65.79
2019-02-15T21:24:47.164Z,65.80
2019-02-15T21:26:58.009Z,65.85
2019-02-15T21:29:08.940Z,65.98
2019-02-15T21:31:19.843Z,66.14
2019-02-15T21:33:31.025Z,66.10
2019-02-15T21:35:41.916Z,66.21
2019-02-15T21:37:52.726Z,65.83
2019-02-15T21:40:45.183Z,66.12
2019-02-15T21:42:56.030Z,66.15
2019-02-15T21:45:48.498Z,66.51
2019-02-15T21:47:59.315Z,67.09
2019-02-15T21:50:16.687Z,67.21
2019-02-15T21:52:22.965Z,67.24
2019-02-15T21:54:33.797Z,67.31
2019-02-15T21:56:44.597Z,67.30
2019-02-15T21:58:55.397Z,67.61
2019-02-15T22:03:25.159Z,68.06
2019-02-15T22:05:35.977Z,68.09
2019-02-15T22:07:46.882Z,67.82
2019-02-15T22:09:57.705Z,67.89
2019-02-15T22:12:08.568Z,68.13
2019-02-15T22:14:19.375Z,68.27
2019-02-15T22:16:30.204Z,68.42
2019-02-15T22:18:41.115Z,68.68
2019-02-15T22:20:51.951Z,68.80
2019-02-15T22:23:02.802Z,68.96
2019-02-15T22:25:13.615Z,69.20
2019-02-15T22:27:24.433Z,69.24
2019-02-15T22:29:55.121Z,70.50
2019-02-15T22:32:05.969Z,70.50
2019-02-15T22:34:16.763Z,70.39
2019-02-15T22:36:27.637Z,70.10
2019-02-15T22:38:38.450Z,70.05
2019-02-15T22:41:30.944Z,69.88
2019-02-15T22:44:23.369Z,70.08
2019-02-15T22:46:34.203Z,70.44
2019-02-15T22:48:45.032Z,70.32
2019-02-15T22:50:55.827Z,70.15
2019-02-15T22:53:06.659Z,70.35
2019-02-15T22:55:17.463Z,70.28
2019-02-15T22:57:28.302Z,70.09
2019-02-15T22:59:39.112Z,70.10
2019-02-15T23:01:49.909Z,70.87
2019-02-15T23:04:00.817Z,70.64
2019-02-15T23:06:11.617Z,70.62
2019-02-15T23:08:22.552Z,70.42
2019-02-15T23:10:33.349Z,70.16
2019-02-15T23:12:44.209Z,70.39
2019-02-15T23:14:55.106Z,70.22
2019-02-15T23:17:05.912Z,70.27
2019-02-15T23:19:16.829Z,70.19
2019-02-15T23:21:27.649Z,70.40
2019-02-15T23:23:38.471Z,70.35
2019-02-15T23:25:49.281Z,70.05
2019-02-15T23:28:00.113Z,70.41
2019-02-15T23:30:11.057Z,70.52
2019-02-15T23:32:21.866Z,70.66
2019-02-15T23:34:32.697Z,70.68
2019-02-15T23:36:43.506Z,70.67
2019-02-15T23:38:54.327Z,70.55
2019-02-15T23:41:05.124Z,70.62
2019-02-15T23:43:15.955Z,70.73
2019-02-15T23:45:26.766Z,70.57
2019-02-15T23:47:37.558Z,70.76
2019-02-15T23:49:48.370Z,70.86
2019-02-15T23:51:59.192Z,70.65
2019-02-15T23:54:09.990Z,70.44
2019-02-15T23:56:20.813Z,70.04
2019-02-15T23:58:31.647Z,69.70
